MMPB/PBC METAR and TAF weather

Enter ICAO airport designator
Station Type Date Time Source
MMPB METAR 2019/08/24 21:45 UTC NOAA

MMPB 242145Z 20010KT 9SM SCT020TCU 23/14 A3028 RMK 8/200 HZY


Station Type Date Time Source
MMPB Decoded METAR 2019/08/24 21:45 UTC NOAA

Station name not available
Aug 24, 2019 - 05:45 PM EDT / 2019.08.24 2145 UTC
Wind: from the SSW (200 degrees) at 12 MPH (10 KT):0
Visibility: 9 mile(s):0
Sky conditions: partly cloudy
Weather: Towering cumulus clouds observed
Temperature: 73 F (23 C)
Dew Point: 57 F (14 C)
Relative Humidity: 56%
Pressure (altimeter): 30.28 in. Hg (1025 hPa)
ob: MMPB 242145Z 20010KT 9SM SCT020TCU 23/14 A3028 RMK 8/200 HZY
cycle: 22

Station Type Date Time Source
MMPB TAF 2019/08/24 18:13 UTC NOAA

TAF MMPB 241607Z 2418/2518 19010KT P6SM SCT020 BKN090 BKN200
BECMG 2421/2422 P6SM VC RA BKN020CB
TEMPO 2423/2503 3SM TSRA BKN015 OVC020CB
FM250400 00000KT 6SM HZ SCT020 BKN080 BKN220
FM251000 00000KT 4SM BR SCT015 SCT080
TEMPO 2511/2515 2SM BR HZ BKN010
FM251600 16006KT 6SM HZ SCT015 SCT070

Example: see airport list